sensor_id;sensor_type;location;lat;lon;timestamp;temperature;humidity
27314;DHT22;14800;48.174;9.798;2022-09-27T00:01:03;13.50;75.00
27314;DHT22;14800;48.174;9.798;2022-09-27T00:03:30;13.50;75.40
27314;DHT22;14800;48.174;9.798;2022-09-27T00:06:15;13.40;75.40
27314;DHT22;14800;48.174;9.798;2022-09-27T00:08:43;13.40;76.10
27314;DHT22;14800;48.174;9.798;2022-09-27T00:11:14;13.40;75.70
27314;DHT22;14800;48.174;9.798;2022-09-27T00:13:42;13.30;75.90
27314;DHT22;14800;48.174;9.798;2022-09-27T00:16:08;13.30;76.00
27314;DHT22;14800;48.174;9.798;2022-09-27T00:18:34;13.20;76.10
27314;DHT22;14800;48.174;9.798;2022-09-27T00:21:07;13.20;76.30
27314;DHT22;14800;48.174;9.798;2022-09-27T00:23:33;13.20;76.90
27314;DHT22;14800;48.174;9.798;2022-09-27T00:25:59;13.10;76.60
27314;DHT22;14800;48.174;9.798;2022-09-27T00:28:26;13.10;76.80
27314;DHT22;14800;48.174;9.798;2022-09-27T00:30:52;13.10;76.80
27314;DHT22;14800;48.174;9.798;2022-09-27T00:33:18;13.00;77.00
27314;DHT22;14800;48.174;9.798;2022-09-27T00:35:45;13.00;77.10
27314;DHT22;14800;48.174;9.798;2022-09-27T00:38:11;13.00;77.50
27314;DHT22;14800;48.174;9.798;2022-09-27T00:40:37;12.90;77.50
27314;DHT22;14800;48.174;9.798;2022-09-27T00:43:19;12.90;77.60
27314;DHT22;14800;48.174;9.798;2022-09-27T00:45:52;12.80;78.20
27314;DHT22;14800;48.174;9.798;2022-09-27T00:48:22;12.80;78.10
27314;DHT22;14800;48.174;9.798;2022-09-27T00:50:52;12.80;78.00
27314;DHT22;14800;48.174;9.798;2022-09-27T00:53:34;12.70;77.90
27314;DHT22;14800;48.174;9.798;2022-09-27T00:56:07;12.70;78.50
27314;DHT22;14800;48.174;9.798;2022-09-27T00:58:36;12.60;78.40
27314;DHT22;14800;48.174;9.798;2022-09-27T01:01:06;12.60;78.50
27314;DHT22;14800;48.174;9.798;2022-09-27T01:04:02;12.60;78.90
27314;DHT22;14800;48.174;9.798;2022-09-27T01:06:29;12.50;79.50
27314;DHT22;14800;48.174;9.798;2022-09-27T01:08:55;12.50;79.00
27314;DHT22;14800;48.174;9.798;2022-09-27T01:14:02;12.40;79.60
27314;DHT22;14800;48.174;9.798;2022-09-27T01:22:16;12.30;80.10
27314;DHT22;14800;48.174;9.798;2022-09-27T01:30:41;12.30;80.80
27314;DHT22;14800;48.174;9.798;2022-09-27T01:39:09;12.30;80.30
27314;DHT22;14800;48.174;9.798;2022-09-27T01:42:03;12.20;81.20
27314;DHT22;14800;48.174;9.798;2022-09-27T01:44:52;12.20;81.10
27314;DHT22;14800;48.174;9.798;2022-09-27T01:47:25;12.20;81.30
27314;DHT22;14800;48.174;9.798;2022-09-27T01:50:07;12.20;81.00
27314;DHT22;14800;48.174;9.798;2022-09-27T01:52:42;12.30;81.20
27314;DHT22;14800;48.174;9.798;2022-09-27T01:55:12;12.20;81.00
27314;DHT22;14800;48.174;9.798;2022-09-27T01:57:43;12.20;81.10
27314;DHT22;14800;48.174;9.798;2022-09-27T02:00:11;12.20;81.20
27314;DHT22;14800;48.174;9.798;2022-09-27T02:02:48;12.20;81.00
27314;DHT22;14800;48.174;9.798;2022-09-27T02:05:16;12.30;81.40
27314;DHT22;14800;48.174;9.798;2022-09-27T02:07:44;12.30;81.30
27314;DHT22;14800;48.174;9.798;2022-09-27T02:10:20;12.20;81.30
27314;DHT22;14800;48.174;9.798;2022-09-27T02:13:18;12.20;81.60
27314;DHT22;14800;48.174;9.798;2022-09-27T02:21:10;12.20;81.50
27314;DHT22;14800;48.174;9.798;2022-09-27T02:23:45;12.30;81.60
27314;DHT22;14800;48.174;9.798;2022-09-27T02:26:32;12.20;82.00
27314;DHT22;14800;48.174;9.798;2022-09-27T02:28:59;12.30;82.10
27314;DHT22;14800;48.174;9.798;2022-09-27T02:31:30;12.30;81.90
27314;DHT22;14800;48.174;9.798;2022-09-27T02:34:12;12.30;82.00
27314;DHT22;14800;48.174;9.798;2022-09-27T02:36:39;12.30;82.70
27314;DHT22;14800;48.174;9.798;2022-09-27T02:39:05;12.30;82.20
27314;DHT22;14800;48.174;9.798;2022-09-27T02:41:31;12.30;82.20
27314;DHT22;14800;48.174;9.798;2022-09-27T02:44:03;12.30;82.30
27314;DHT22;14800;48.174;9.798;2022-09-27T03:00:03;12.40;82.40
27314;DHT22;14800;48.174;9.798;2022-09-27T03:05:19;12.40;82.30
27314;DHT22;14800;48.174;9.798;2022-09-27T03:07:47;12.40;82.30
27314;DHT22;14800;48.174;9.798;2022-09-27T03:10:22;12.30;82.10
27314;DHT22;14800;48.174;9.798;2022-09-27T03:12:49;12.40;82.80
27314;DHT22;14800;48.174;9.798;2022-09-27T03:15:14;12.30;82.30
27314;DHT22;14800;48.174;9.798;2022-09-27T03:17:40;12.30;82.30
27314;DHT22;14800;48.174;9.798;2022-09-27T03:20:06;12.30;82.20
27314;DHT22;14800;48.174;9.798;2022-09-27T03:22:33;12.30;82.20
27314;DHT22;14800;48.174;9.798;2022-09-27T03:24:59;12.40;82.20
27314;DHT22;14800;48.174;9.798;2022-09-27T03:27:25;12.30;82.20
27314;DHT22;14800;48.174;9.798;2022-09-27T03:29:50;12.30;82.20
27314;DHT22;14800;48.174;9.798;2022-09-27T03:32:16;12.30;82.20
27314;DHT22;14800;48.174;9.798;2022-09-27T03:34:42;12.30;82.20
27314;DHT22;14800;48.174;9.798;2022-09-27T03:37:08;12.30;82.30
27314;DHT22;14800;48.174;9.798;2022-09-27T03:39:34;12.30;82.40
27314;DHT22;14800;48.174;9.798;2022-09-27T03:42:00;12.30;82.40
27314;DHT22;14800;48.174;9.798;2022-09-27T03:44:25;12.30;82.20
27314;DHT22;14800;48.174;9.798;2022-09-27T03:46:51;12.30;82.30
27314;DHT22;14800;48.174;9.798;2022-09-27T03:49:17;12.30;82.40
27314;DHT22;14800;48.174;9.798;2022-09-27T03:51:42;12.30;82.20
27314;DHT22;14800;48.174;9.798;2022-09-27T03:54:08;12.30;82.20
27314;DHT22;14800;48.174;9.798;2022-09-27T03:56:34;12.30;82.20
27314;DHT22;14800;48.174;9.798;2022-09-27T03:59:00;12.30;82.10
27314;DHT22;14800;48.174;9.798;2022-09-27T04:01:25;12.30;82.00
27314;DHT22;14800;48.174;9.798;2022-09-27T04:03:52;12.30;82.00
27314;DHT22;14800;48.174;9.798;2022-09-27T04:06:18;12.30;81.90
27314;DHT22;14800;48.174;9.798;2022-09-27T04:08:44;12.30;82.20
27314;DHT22;14800;48.174;9.798;2022-09-27T04:11:10;12.30;82.20
27314;DHT22;14800;48.174;9.798;2022-09-27T04:13:36;12.30;82.00
27314;DHT22;14800;48.174;9.798;2022-09-27T04:16:02;12.20;81.90
27314;DHT22;14800;48.174;9.798;2022-09-27T04:18:28;12.30;82.00
27314;DHT22;14800;48.174;9.798;2022-09-27T04:20:54;12.20;82.00
27314;DHT22;14800;48.174;9.798;2022-09-27T04:23:20;12.30;82.00
27314;DHT22;14800;48.174;9.798;2022-09-27T04:25:46;12.20;82.00
27314;DHT22;14800;48.174;9.798;2022-09-27T04:28:11;12.20;81.90
27314;DHT22;14800;48.174;9.798;2022-09-27T04:30:37;12.20;81.60
27314;DHT22;14800;48.174;9.798;2022-09-27T04:33:03;12.20;81.50
27314;DHT22;14800;48.174;9.798;2022-09-27T04:35:29;12.20;81.30
27314;DHT22;14800;48.174;9.798;2022-09-27T04:38:13;12.10;81.30
27314;DHT22;14800;48.174;9.798;2022-09-27T04:40:39;12.10;81.20
27314;DHT22;14800;48.174;9.798;2022-09-27T04:43:06;12.10;81.10
27314;DHT22;14800;48.174;9.798;2022-09-27T04:45:32;12.00;80.90
27314;DHT22;14800;48.174;9.798;2022-09-27T04:47:57;12.00;80.70
27314;DHT22;14800;48.174;9.798;2022-09-27T04:50:23;12.00;80.50
27314;DHT22;14800;48.174;9.798;2022-09-27T04:52:50;12.00;80.20
27314;DHT22;14800;48.174;9.798;2022-09-27T04:55:17;11.90;80.00
27314;DHT22;14800;48.174;9.798;2022-09-27T04:57:42;11.90;80.00
27314;DHT22;14800;48.174;9.798;2022-09-27T05:00:09;11.90;79.90
27314;DHT22;14800;48.174;9.798;2022-09-27T05:02:34;11.80;79.70
27314;DHT22;14800;48.174;9.798;2022-09-27T05:05:00;11.80;79.70
27314;DHT22;14800;48.174;9.798;2022-09-27T05:07:26;11.80;79.80
27314;DHT22;14800;48.174;9.798;2022-09-27T05:09:52;11.80;80.80
27314;DHT22;14800;48.174;9.798;2022-09-27T05:12:18;11.80;80.00
27314;DHT22;14800;48.174;9.798;2022-09-27T05:14:44;11.80;80.00
27314;DHT22;14800;48.174;9.798;2022-09-27T05:17:10;11.70;80.20
27314;DHT22;14800;48.174;9.798;2022-09-27T05:19:36;11.70;80.30
27314;DHT22;14800;48.174;9.798;2022-09-27T05:22:07;11.70;80.50
27314;DHT22;14800;48.174;9.798;2022-09-27T05:24:33;11.70;80.50
27314;DHT22;14800;48.174;9.798;2022-09-27T05:27:00;11.70;80.50
27314;DHT22;14800;48.174;9.798;2022-09-27T05:29:27;11.70;80.50
27314;DHT22;14800;48.174;9.798;2022-09-27T05:31:53;11.70;80.60
27314;DHT22;14800;48.174;9.798;2022-09-27T05:34:19;11.70;80.80
27314;DHT22;14800;48.174;9.798;2022-09-27T05:36:48;11.70;80.90
27314;DHT22;14800;48.174;9.798;2022-09-27T05:39:15;11.70;81.00
27314;DHT22;14800;48.174;9.798;2022-09-27T05:41:42;11.70;81.00
27314;DHT22;14800;48.174;9.798;2022-09-27T05:44:08;11.70;81.20
27314;DHT22;14800;48.174;9.798;2022-09-27T05:46:33;11.70;81.20
27314;DHT22;14800;48.174;9.798;2022-09-27T05:48:59;11.70;81.30
27314;DHT22;14800;48.174;9.798;2022-09-27T05:51:25;11.70;81.40
27314;DHT22;14800;48.174;9.798;2022-09-27T05:53:51;11.70;81.50
27314;DHT22;14800;48.174;9.798;2022-09-27T05:56:16;11.70;81.70
27314;DHT22;14800;48.174;9.798;2022-09-27T05:58:42;11.80;81.80
27314;DHT22;14800;48.174;9.798;2022-09-27T06:01:08;11.80;81.90
27314;DHT22;14800;48.174;9.798;2022-09-27T06:03:34;11.80;82.00
27314;DHT22;14800;48.174;9.798;2022-09-27T06:06:02;11.80;82.40
27314;DHT22;14800;48.174;9.798;2022-09-27T06:08:32;11.80;82.20
27314;DHT22;14800;48.174;9.798;2022-09-27T06:11:07;11.70;80.10
27314;DHT22;14800;48.174;9.798;2022-09-27T06:13:34;11.60;79.40
27314;DHT22;14800;48.174;9.798;2022-09-27T06:16:04;11.50;79.40
27314;DHT22;14800;48.174;9.798;2022-09-27T06:18:30;11.30;79.20
27314;DHT22;14800;48.174;9.798;2022-09-27T06:20:58;11.30;80.50
27314;DHT22;14800;48.174;9.798;2022-09-27T06:23:24;11.10;80.20
27314;DHT22;14800;48.174;9.798;2022-09-27T06:25:51;11.00;80.60
27314;DHT22;14800;48.174;9.798;2022-09-27T06:28:17;11.00;81.00
27314;DHT22;14800;48.174;9.798;2022-09-27T06:30:48;11.00;81.60
27314;DHT22;14800;48.174;9.798;2022-09-27T06:33:16;11.00;82.20
27314;DHT22;14800;48.174;9.798;2022-09-27T06:35:42;10.90;82.40
27314;DHT22;14800;48.174;9.798;2022-09-27T06:38:12;11.00;82.60
27314;DHT22;14800;48.174;9.798;2022-09-27T06:40:38;11.00;82.40
27314;DHT22;14800;48.174;9.798;2022-09-27T06:43:06;11.00;82.20
27314;DHT22;14800;48.174;9.798;2022-09-27T06:45:34;11.00;81.90
27314;DHT22;14800;48.174;9.798;2022-09-27T06:48:01;11.00;81.80
27314;DHT22;14800;48.174;9.798;2022-09-27T06:50:31;11.00;81.70
27314;DHT22;14800;48.174;9.798;2022-09-27T06:52:57;11.00;82.00
27314;DHT22;14800;48.174;9.798;2022-09-27T06:55:23;11.10;81.50
27314;DHT22;14800;48.174;9.798;2022-09-27T06:57:56;11.10;81.50
27314;DHT22;14800;48.174;9.798;2022-09-27T07:00:41;11.10;81.70
27314;DHT22;14800;48.174;9.798;2022-09-27T07:03:09;11.10;81.30
27314;DHT22;14800;48.174;9.798;2022-09-27T07:05:36;11.10;81.00
27314;DHT22;14800;48.174;9.798;2022-09-27T07:08:02;11.10;81.00
27314;DHT22;14800;48.174;9.798;2022-09-27T07:10:29;11.10;81.20
27314;DHT22;14800;48.174;9.798;2022-09-27T07:13:11;11.10;81.20
27314;DHT22;14800;48.174;9.798;2022-09-27T07:15:39;11.00;81.00
27314;DHT22;14800;48.174;9.798;2022-09-27T07:18:06;11.00;81.00
27314;DHT22;14800;48.174;9.798;2022-09-27T07:20:33;11.10;81.20
27314;DHT22;14800;48.174;9.798;2022-09-27T07:23:04;11.10;81.00
27314;DHT22;14800;48.174;9.798;2022-09-27T07:25:30;11.10;81.90
27314;DHT22;14800;48.174;9.798;2022-09-27T07:28:04;11.00;81.10
27314;DHT22;14800;48.174;9.798;2022-09-27T07:30:31;11.00;81.30
27314;DHT22;14800;48.174;9.798;2022-09-27T07:33:01;11.10;81.30
27314;DHT22;14800;48.174;9.798;2022-09-27T07:35:28;11.10;81.50
27314;DHT22;14800;48.174;9.798;2022-09-27T07:37:55;11.10;81.50
27314;DHT22;14800;48.174;9.798;2022-09-27T07:40:21;11.10;81.90
27314;DHT22;14800;48.174;9.798;2022-09-27T07:42:47;11.10;81.90
27314;DHT22;14800;48.174;9.798;2022-09-27T07:45:18;11.10;82.00
27314;DHT22;14800;48.174;9.798;2022-09-27T07:47:44;11.20;82.10
27314;DHT22;14800;48.174;9.798;2022-09-27T07:50:10;11.30;81.80
27314;DHT22;14800;48.174;9.798;2022-09-27T07:52:43;11.30;81.60
27314;DHT22;14800;48.174;9.798;2022-09-27T07:55:11;11.40;81.90
27314;DHT22;14800;48.174;9.798;2022-09-27T07:57:37;11.40;81.60
27314;DHT22;14800;48.174;9.798;2022-09-27T08:00:05;11.40;81.30
27314;DHT22;14800;48.174;9.798;2022-09-27T08:02:32;11.50;81.30
27314;DHT22;14800;48.174;9.798;2022-09-27T08:05:00;11.50;81.30
27314;DHT22;14800;48.174;9.798;2022-09-27T08:07:27;11.50;81.50
27314;DHT22;14800;48.174;9.798;2022-09-27T08:09:53;11.60;81.10
27314;DHT22;14800;48.174;9.798;2022-09-27T08:12:19;11.60;81.10
27314;DHT22;14800;48.174;9.798;2022-09-27T08:14:46;11.60;81.10
27314;DHT22;14800;48.174;9.798;2022-09-27T08:17:12;11.70;80.80
27314;DHT22;14800;48.174;9.798;2022-09-27T08:19:38;11.70;80.60
27314;DHT22;14800;48.174;9.798;2022-09-27T08:22:05;11.70;80.60
27314;DHT22;14800;48.174;9.798;2022-09-27T08:24:31;11.70;80.50
27314;DHT22;14800;48.174;9.798;2022-09-27T08:26:58;11.80;80.50
27314;DHT22;14800;48.174;9.798;2022-09-27T08:29:23;11.80;81.40
27314;DHT22;14800;48.174;9.798;2022-09-27T08:31:52;11.80;79.90
27314;DHT22;14800;48.174;9.798;2022-09-27T08:34:19;11.90;79.80
27314;DHT22;14800;48.174;9.798;2022-09-27T08:36:46;11.90;79.50
27314;DHT22;14800;48.174;9.798;2022-09-27T08:39:12;11.90;78.90
27314;DHT22;14800;48.174;9.798;2022-09-27T08:52:18;12.00;78.30
27314;DHT22;14800;48.174;9.798;2022-09-27T08:54:45;12.00;78.60
27314;DHT22;14800;48.174;9.798;2022-09-27T08:57:11;12.00;78.90
27314;DHT22;14800;48.174;9.798;2022-09-27T09:00:04;12.00;79.00
27314;DHT22;14800;48.174;9.798;2022-09-27T09:02:31;12.10;78.60
27314;DHT22;14800;48.174;9.798;2022-09-27T09:05:05;12.10;78.50
27314;DHT22;14800;48.174;9.798;2022-09-27T09:16:34;12.20;77.00
27314;DHT22;14800;48.174;9.798;2022-09-27T09:24:39;12.30;76.50
27314;DHT22;14800;48.174;9.798;2022-09-27T09:27:16;12.40;76.60
27314;DHT22;14800;48.174;9.798;2022-09-27T09:32:45;12.40;76.40
27314;DHT22;14800;48.174;9.798;2022-09-27T09:35:30;12.40;76.70
27314;DHT22;14800;48.174;9.798;2022-09-27T09:38:02;12.50;76.80
27314;DHT22;14800;48.174;9.798;2022-09-27T09:40:42;12.50;76.80
27314;DHT22;14800;48.174;9.798;2022-09-27T09:43:34;12.60;77.10
27314;DHT22;14800;48.174;9.798;2022-09-27T09:51:26;12.90;74.90
27314;DHT22;14800;48.174;9.798;2022-09-27T09:54:14;12.90;73.60
27314;DHT22;14800;48.174;9.798;2022-09-27T09:56:47;12.90;73.30
27314;DHT22;14800;48.174;9.798;2022-09-27T09:59:25;12.90;73.70
27314;DHT22;14800;48.174;9.798;2022-09-27T10:01:53;12.90;73.90
27314;DHT22;14800;48.174;9.798;2022-09-27T10:04:23;12.90;74.20
27314;DHT22;14800;48.174;9.798;2022-09-27T10:06:51;12.90;74.00
27314;DHT22;14800;48.174;9.798;2022-09-27T10:09:23;12.90;74.50
27314;DHT22;14800;48.174;9.798;2022-09-27T10:11:49;12.90;75.10
27314;DHT22;14800;48.174;9.798;2022-09-27T10:14:18;12.90;75.40
27314;DHT22;14800;48.174;9.798;2022-09-27T10:16:51;13.00;75.10
27314;DHT22;14800;48.174;9.798;2022-09-27T10:19:24;13.00;75.10
27314;DHT22;14800;48.174;9.798;2022-09-27T10:21:53;13.00;74.90
27314;DHT22;14800;48.174;9.798;2022-09-27T10:24:22;13.00;75.00
27314;DHT22;14800;48.174;9.798;2022-09-27T10:26:49;13.00;74.90
27314;DHT22;14800;48.174;9.798;2022-09-27T10:31:46;13.00;75.30
27314;DHT22;14800;48.174;9.798;2022-09-27T10:34:41;13.10;75.70
27314;DHT22;14800;48.174;9.798;2022-09-27T10:37:17;13.10;75.80
27314;DHT22;14800;48.174;9.798;2022-09-27T10:39:45;13.10;75.10
27314;DHT22;14800;48.174;9.798;2022-09-27T10:42:32;13.10;75.00
27314;DHT22;14800;48.174;9.798;2022-09-27T10:45:20;13.10;75.30
27314;DHT22;14800;48.174;9.798;2022-09-27T10:47:47;13.10;75.30
27314;DHT22;14800;48.174;9.798;2022-09-27T10:50:33;13.10;75.40
27314;DHT22;14800;48.174;9.798;2022-09-27T10:53:18;13.20;74.90
27314;DHT22;14800;48.174;9.798;2022-09-27T10:55:50;13.10;74.40
27314;DHT22;14800;48.174;9.798;2022-09-27T10:58:39;13.20;74.70
27314;DHT22;14800;48.174;9.798;2022-09-27T11:01:07;13.20;74.70
27314;DHT22;14800;48.174;9.798;2022-09-27T11:03:45;13.20;74.20
27314;DHT22;14800;48.174;9.798;2022-09-27T11:08:43;13.20;73.80
27314;DHT22;14800;48.174;9.798;2022-09-27T11:13:39;13.30;73.90
27314;DHT22;14800;48.174;9.798;2022-09-27T11:21:56;13.30;72.60
27314;DHT22;14800;48.174;9.798;2022-09-27T11:27:21;13.30;72.00
27314;DHT22;14800;48.174;9.798;2022-09-27T11:30:16;13.40;72.30
27314;DHT22;14800;48.174;9.798;2022-09-27T11:36:04;13.50;71.70
27314;DHT22;14800;48.174;9.798;2022-09-27T11:46:29;13.70;71.10
27314;DHT22;14800;48.174;9.798;2022-09-27T12:04:59;14.10;70.70
27314;DHT22;14800;48.174;9.798;2022-09-27T12:10:22;14.20;69.20
27314;DHT22;14800;48.174;9.798;2022-09-27T12:12:55;14.30;69.00
27314;DHT22;14800;48.174;9.798;2022-09-27T12:15:26;14.40;68.40
27314;DHT22;14800;48.174;9.798;2022-09-27T12:20:47;14.50;67.30
27314;DHT22;14800;48.174;9.798;2022-09-27T12:23:25;14.50;67.70
27314;DHT22;14800;48.174;9.798;2022-09-27T12:25:58;14.60;67.30
27314;DHT22;14800;48.174;9.798;2022-09-27T12:31:26;14.60;66.10
27314;DHT22;14800;48.174;9.798;2022-09-27T12:36:30;14.70;66.30
27314;DHT22;14800;48.174;9.798;2022-09-27T12:44:38;14.60;67.30
27314;DHT22;14800;48.174;9.798;2022-09-27T12:50:57;14.60;66.90
27314;DHT22;14800;48.174;9.798;2022-09-27T12:52:57;14.60;66.90
27314;DHT22;14800;48.174;9.798;2022-09-27T13:01:31;14.60;67.40
27314;DHT22;14800;48.174;9.798;2022-09-27T13:04:11;14.60;67.10
27314;DHT22;14800;48.174;9.798;2022-09-27T13:06:47;14.60;66.70
27314;DHT22;14800;48.174;9.798;2022-09-27T13:09:32;14.60;67.40
27314;DHT22;14800;48.174;9.798;2022-09-27T13:12:07;14.60;67.30
27314;DHT22;14800;48.174;9.798;2022-09-27T13:22:58;14.50;66.60
27314;DHT22;14800;48.174;9.798;2022-09-27T13:28:31;14.50;65.90
27314;DHT22;14800;48.174;9.798;2022-09-27T13:31:02;14.50;65.90
27314;DHT22;14800;48.174;9.798;2022-09-27T13:33:50;14.40;66.30
27314;DHT22;14800;48.174;9.798;2022-09-27T13:44:52;14.40;66.60
27314;DHT22;14800;48.174;9.798;2022-09-27T13:47:33;14.30;67.40
27314;DHT22;14800;48.174;9.798;2022-09-27T13:50:26;14.30;67.60
27314;DHT22;14800;48.174;9.798;2022-09-27T13:53:01;14.30;67.50
27314;DHT22;14800;48.174;9.798;2022-09-27T14:00:40;14.10;69.00
27314;DHT22;14800;48.174;9.798;2022-09-27T14:03:30;14.10;69.30
27314;DHT22;14800;48.174;9.798;2022-09-27T14:06:35;14.00;69.30
27314;DHT22;14800;48.174;9.798;2022-09-27T14:09:34;14.00;70.40
27314;DHT22;14800;48.174;9.798;2022-09-27T14:12:08;13.90;70.70
27314;DHT22;14800;48.174;9.798;2022-09-27T14:14:34;13.80;71.20
27314;DHT22;14800;48.174;9.798;2022-09-27T14:17:01;13.80;71.90
27314;DHT22;14800;48.174;9.798;2022-09-27T14:19:30;13.70;72.20
27314;DHT22;14800;48.174;9.798;2022-09-27T14:21:56;13.60;72.60
27314;DHT22;14800;48.174;9.798;2022-09-27T14:27:05;13.50;73.70
27314;DHT22;14800;48.174;9.798;2022-09-27T14:29:43;13.40;73.90
27314;DHT22;14800;48.174;9.798;2022-09-27T14:32:19;13.30;74.00
27314;DHT22;14800;48.174;9.798;2022-09-27T14:34:45;13.40;73.90
27314;DHT22;14800;48.174;9.798;2022-09-27T14:37:19;13.30;73.90
27314;DHT22;14800;48.174;9.798;2022-09-27T14:39:53;13.30;74.60
27314;DHT22;14800;48.174;9.798;2022-09-27T14:42:22;13.30;74.60
27314;DHT22;14800;48.174;9.798;2022-09-27T14:44:50;13.30;74.50
27314;DHT22;14800;48.174;9.798;2022-09-27T14:49:52;13.30;74.50
27314;DHT22;14800;48.174;9.798;2022-09-27T14:52:38;13.20;74.00
27314;DHT22;14800;48.174;9.798;2022-09-27T14:55:14;13.20;74.90
27314;DHT22;14800;48.174;9.798;2022-09-27T15:02:45;13.20;75.80
27314;DHT22;14800;48.174;9.798;2022-09-27T15:05:16;13.10;76.30
27314;DHT22;14800;48.174;9.798;2022-09-27T15:07:44;13.10;77.10
27314;DHT22;14800;48.174;9.798;2022-09-27T15:10:21;13.00;76.80
27314;DHT22;14800;48.174;9.798;2022-09-27T15:12:49;13.00;76.50
27314;DHT22;14800;48.174;9.798;2022-09-27T15:15:24;13.00;75.80
27314;DHT22;14800;48.174;9.798;2022-09-27T15:17:52;13.00;75.40
27314;DHT22;14800;48.174;9.798;2022-09-27T15:22:56;12.90;75.50
27314;DHT22;14800;48.174;9.798;2022-09-27T15:28:04;12.90;75.50
27314;DHT22;14800;48.174;9.798;2022-09-27T15:30:36;12.90;75.60
27314;DHT22;14800;48.174;9.798;2022-09-27T15:33:03;12.80;75.90
27314;DHT22;14800;48.174;9.798;2022-09-27T15:35:31;12.80;75.80
27314;DHT22;14800;48.174;9.798;2022-09-27T15:41:11;12.80;76.00
27314;DHT22;14800;48.174;9.798;2022-09-27T15:43:46;12.70;75.80
27314;DHT22;14800;48.174;9.798;2022-09-27T15:51:43;12.70;76.30
27314;DHT22;14800;48.174;9.798;2022-09-27T15:54:09;12.60;76.00
27314;DHT22;14800;48.174;9.798;2022-09-27T15:56:39;12.60;76.10
27314;DHT22;14800;48.174;9.798;2022-09-27T15:59:06;12.60;76.10
27314;DHT22;14800;48.174;9.798;2022-09-27T16:01:37;12.60;76.00
27314;DHT22;14800;48.174;9.798;2022-09-27T16:04:06;12.60;75.90
27314;DHT22;14800;48.174;9.798;2022-09-27T16:06:32;12.50;76.10
27314;DHT22;14800;48.174;9.798;2022-09-27T16:08:58;12.50;76.60
27314;DHT22;14800;48.174;9.798;2022-09-27T16:11:23;12.40;77.20
27314;DHT22;14800;48.174;9.798;2022-09-27T16:13:49;12.30;77.50
27314;DHT22;14800;48.174;9.798;2022-09-27T16:16:18;12.30;78.10
27314;DHT22;14800;48.174;9.798;2022-09-27T16:18:44;12.20;78.60
27314;DHT22;14800;48.174;9.798;2022-09-27T16:21:11;12.20;78.60
27314;DHT22;14800;48.174;9.798;2022-09-27T16:23:36;12.20;78.40
27314;DHT22;14800;48.174;9.798;2022-09-27T16:26:03;12.20;78.40
27314;DHT22;14800;48.174;9.798;2022-09-27T16:28:30;12.10;78.20
27314;DHT22;14800;48.174;9.798;2022-09-27T16:31:04;12.10;78.20
27314;DHT22;14800;48.174;9.798;2022-09-27T16:33:30;12.10;78.60
27314;DHT22;14800;48.174;9.798;2022-09-27T16:35:57;12.10;78.50
27314;DHT22;14800;48.174;9.798;2022-09-27T16:38:23;12.00;78.40
27314;DHT22;14800;48.174;9.798;2022-09-27T16:40:51;12.00;78.60
27314;DHT22;14800;48.174;9.798;2022-09-27T16:43:17;12.00;78.70
27314;DHT22;14800;48.174;9.798;2022-09-27T16:45:44;12.00;78.90
27314;DHT22;14800;48.174;9.798;2022-09-27T16:48:10;12.00;79.00
27314;DHT22;14800;48.174;9.798;2022-09-27T16:50:36;12.00;78.70
27314;DHT22;14800;48.174;9.798;2022-09-27T16:53:20;12.00;78.70
27314;DHT22;14800;48.174;9.798;2022-09-27T16:55:46;12.10;78.70
27314;DHT22;14800;48.174;9.798;2022-09-27T16:58:11;12.00;78.70
27314;DHT22;14800;48.174;9.798;2022-09-27T17:00:38;12.00;78.60
27314;DHT22;14800;48.174;9.798;2022-09-27T17:03:06;12.00;78.60
27314;DHT22;14800;48.174;9.798;2022-09-27T17:05:33;12.00;78.50
27314;DHT22;14800;48.174;9.798;2022-09-27T17:07:58;12.00;78.40
27314;DHT22;14800;48.174;9.798;2022-09-27T17:10:24;12.00;78.30
27314;DHT22;14800;48.174;9.798;2022-09-27T17:12:50;12.00;78.30
27314;DHT22;14800;48.174;9.798;2022-09-27T17:15:16;12.00;78.30
27314;DHT22;14800;48.174;9.798;2022-09-27T17:17:42;12.00;78.20
27314;DHT22;14800;48.174;9.798;2022-09-27T17:20:09;12.00;78.20
27314;DHT22;14800;48.174;9.798;2022-09-27T17:22:35;12.00;78.20
27314;DHT22;14800;48.174;9.798;2022-09-27T17:25:00;11.90;78.10
27314;DHT22;14800;48.174;9.798;2022-09-27T17:27:26;12.00;78.00
27314;DHT22;14800;48.174;9.798;2022-09-27T17:29:53;11.90;77.80
27314;DHT22;14800;48.174;9.798;2022-09-27T17:32:19;11.90;77.80
27314;DHT22;14800;48.174;9.798;2022-09-27T17:34:49;11.90;77.70
27314;DHT22;14800;48.174;9.798;2022-09-27T17:37:15;11.90;77.70
27314;DHT22;14800;48.174;9.798;2022-09-27T17:39:40;11.90;77.60
27314;DHT22;14800;48.174;9.798;2022-09-27T17:42:06;11.80;77.60
27314;DHT22;14800;48.174;9.798;2022-09-27T17:44:32;11.80;77.70
27314;DHT22;14800;48.174;9.798;2022-09-27T17:46:58;11.80;77.80
27314;DHT22;14800;48.174;9.798;2022-09-27T17:49:42;11.80;77.70
27314;DHT22;14800;48.174;9.798;2022-09-27T17:52:26;11.80;77.60
27314;DHT22;14800;48.174;9.798;2022-09-27T17:54:53;11.80;77.70
27314;DHT22;14800;48.174;9.798;2022-09-27T17:57:20;11.80;77.90
27314;DHT22;14800;48.174;9.798;2022-09-27T17:59:46;11.70;78.00
27314;DHT22;14800;48.174;9.798;2022-09-27T18:02:11;11.70;77.90
27314;DHT22;14800;48.174;9.798;2022-09-27T18:04:37;11.80;78.00
27314;DHT22;14800;48.174;9.798;2022-09-27T18:07:02;11.70;77.90
27314;DHT22;14800;48.174;9.798;2022-09-27T18:09:28;11.70;78.00
27314;DHT22;14800;48.174;9.798;2022-09-27T18:11:54;11.70;78.00
27314;DHT22;14800;48.174;9.798;2022-09-27T18:14:21;11.70;78.20
27314;DHT22;14800;48.174;9.798;2022-09-27T18:16:47;11.70;78.50
27314;DHT22;14800;48.174;9.798;2022-09-27T18:19:15;11.60;78.70
27314;DHT22;14800;48.174;9.798;2022-09-27T18:21:41;11.70;79.00
27314;DHT22;14800;48.174;9.798;2022-09-27T18:24:07;11.70;79.10
27314;DHT22;14800;48.174;9.798;2022-09-27T18:26:35;11.60;79.30
27314;DHT22;14800;48.174;9.798;2022-09-27T18:29:15;11.60;79.40
27314;DHT22;14800;48.174;9.798;2022-09-27T18:31:41;11.60;79.70
27314;DHT22;14800;48.174;9.798;2022-09-27T18:34:07;11.60;79.70
27314;DHT22;14800;48.174;9.798;2022-09-27T18:36:33;11.60;79.70
27314;DHT22;14800;48.174;9.798;2022-09-27T18:39:01;11.60;79.70
27314;DHT22;14800;48.174;9.798;2022-09-27T18:41:29;11.60;79.80
27314;DHT22;14800;48.174;9.798;2022-09-27T18:44:00;11.60;80.00
27314;DHT22;14800;48.174;9.798;2022-09-27T18:46:28;11.60;79.80
27314;DHT22;14800;48.174;9.798;2022-09-27T18:48:54;11.60;79.70
27314;DHT22;14800;48.174;9.798;2022-09-27T18:51:24;11.60;79.70
27314;DHT22;14800;48.174;9.798;2022-09-27T18:54:05;11.60;79.70
27314;DHT22;14800;48.174;9.798;2022-09-27T18:56:32;11.70;80.10
27314;DHT22;14800;48.174;9.798;2022-09-27T18:59:03;11.60;79.70
27314;DHT22;14800;48.174;9.798;2022-09-27T19:01:33;11.60;79.60